Time,TemperatureF,DewpointF,PressureIn,WindDirection,WindDirectionDegrees,WindSpeedMPH,WindSpeedGustMPH,Humidity,HourlyPrecipIn,Conditions,Clouds,dailyrainin,SolarRadiationWatts/m^2,SoftwareType,DateUTC
2013-10-27 00:01:00,51.9,34.4,29.94,NW,308,0.0,3.0,51,0.00,,CLR,0.00,0.00,VWS V14.01,2013-10-27 04:01:00,
2013-10-27 00:02:00,51.9,34.4,29.94,NNW,347,1.0,4.0,51,0.00,,CLR,0.00,0.00,VWS V14.01,2013-10-27 04:02:00,
2013-10-27 00:04:00,52.0,34.5,29.94,NW,313,2.0,6.0,51,0.00,,CLR,0.00,0.00,VWS V14.01,2013-10-27 04:04:00,
2013-10-27 00:09:00,52.2,34.6,29.94,NNW,338,9.0,9.0,51,0.00,,CLR,0.00,0.00,VWS V14.01,2013-10-27 04:09:00,
2013-10-27 00:14:00,52.3,34.2,29.94,NW,312,0.0,1.0,50,0.00,,CLR,0.00,0.00,VWS V14.01,2013-10-27 04:14:00,
2013-10-27 00:19:00,52.3,34.7,29.94,NNW,334,0.0,0.0,51,0.00,,CLR,0.00,0.00,VWS V14.01,2013-10-27 04:19:00,
2013-10-27 00:24:00,52.3,34.7,29.94,NW,315,0.0,0.0,51,0.00,,CLR,0.00,0.00,VWS V14.01,2013-10-27 04:24:00,
2013-10-27 00:29:00,52.2,34.6,29.94,NW,311,0.0,3.0,51,0.00,,CLR,0.00,0.00,VWS V14.01,2013-10-27 04:29:00,
2013-10-27 00:35:00,52.0,34.5,29.94,NW,324,2.0,2.0,51,0.00,,CLR,0.00,0.00,VWS V14.01,2013-10-27 04:35:00,
2013-10-27 00:40:00,51.7,34.2,29.94,NW,307,3.0,3.0,51,0.00,,CLR,0.00,0.00,VWS V14.01,2013-10-27 04:40:00,
2013-10-27 00:45:00,51.4,34.4,29.94,North,355,0.0,4.0,52,0.00,,CLR,0.00,0.00,VWS V14.01,2013-10-27 04:45:00,
2013-10-27 00:50:00,51.2,34.2,29.94,NNW,340,4.0,6.0,52,0.00,,CLR,0.00,0.00,VWS V14.01,2013-10-27 04:50:00,
2013-10-27 00:55:00,50.9,34.4,29.95,NW,320,0.0,0.0,53,0.00,,CLR,0.00,0.00,VWS V14.01,2013-10-27 04:55:00,
2013-10-27 01:00:00,50.7,34.2,29.95,NW,324,0.0,10.0,53,0.00,,CLR,0.00,0.00,VWS V14.01,2013-10-27 05:00:00,
2013-10-27 01:06:00,50.6,33.6,29.95,NNW,341,4.0,22.0,52,0.00,,CLR,0.00,0.00,VWS V14.01,2013-10-27 05:06:00,
2013-10-27 01:11:00,50.5,33.5,29.95,NW,321,0.0,9.0,52,0.00,,CLR,0.00,0.00,VWS V14.01,2013-10-27 05:11:00,
2013-10-27 01:16:00,50.5,34.0,29.95,NW,313,0.0,5.0,53,0.00,,CLR,0.00,0.00,VWS V14.01,2013-10-27 05:16:00,
2013-10-27 01:21:00,50.4,33.9,29.95,NNW,327,0.0,4.0,53,0.00,,CLR,0.00,0.00,VWS V14.01,2013-10-27 05:21:00,
2013-10-27 01:26:00,50.3,33.8,29.95,NW,319,0.0,0.0,53,0.00,,CLR,0.00,0.00,VWS V14.01,2013-10-27 05:26:00,
2013-10-27 01:31:00,50.2,33.7,29.95,NW,320,0.0,0.0,53,0.00,,CLR,0.00,0.00,VWS V14.01,2013-10-27 05:31:00,
2013-10-27 01:36:00,49.9,33.5,29.95,WNW,284,0.0,1.0,53,0.00,,CLR,0.00,0.00,VWS V14.01,2013-10-27 05:36:00,
2013-10-27 01:42:00,49.7,33.8,29.95,WNW,283,0.0,2.0,54,0.00,,CLR,0.00,0.00,VWS V14.01,2013-10-27 05:42:00,
2013-10-27 01:47:00,49.5,33.6,29.94,WNW,283,0.0,0.0,54,0.00,,CLR,0.00,0.00,VWS V14.01,2013-10-27 05:47:00,
2013-10-27 01:52:00,49.2,33.7,29.94,West,281,0.0,0.0,55,0.00,,CLR,0.00,0.00,VWS V14.01,2013-10-27 05:52:00,
2013-10-27 01:57:00,49.1,33.7,29.94,WNW,282,0.0,0.0,55,0.00,,CLR,0.00,0.00,VWS V14.01,2013-10-27 05:57:00,
2013-10-27 02:02:00,48.8,33.4,29.94,West,281,0.0,0.0,55,0.00,,CLR,0.00,0.00,VWS V14.01,2013-10-27 06:02:00,
2013-10-27 02:07:00,48.6,33.6,29.95,West,281,0.0,0.0,56,0.00,,CLR,0.00,0.00,VWS V14.01,2013-10-27 06:07:00,
2013-10-27 02:12:00,48.3,33.3,29.95,WNW,282,0.0,0.0,56,0.00,,CLR,0.00,0.00,VWS V14.01,2013-10-27 06:12:00,
2013-10-27 02:17:00,47.9,33.0,29.95,WNW,282,0.0,0.0,56,0.00,,CLR,0.00,0.00,VWS V14.01,2013-10-27 06:17:00,
2013-10-27 02:23:00,47.6,33.1,29.94,NW,317,0.0,0.0,57,0.00,,CLR,0.00,0.00,VWS V14.01,2013-10-27 06:23:00,
2013-10-27 02:28:00,47.2,33.2,29.94,NW,317,0.0,0.0,58,0.00,,CLR,0.00,0.00,VWS V14.01,2013-10-27 06:28:00,
2013-10-27 02:33:00,47.0,33.0,29.95,NW,317,0.0,0.0,58,0.00,,CLR,0.00,0.00,VWS V14.01,2013-10-27 06:33:00,
2013-10-27 02:38:00,46.8,33.2,29.95,NW,317,0.0,0.0,59,0.00,,CLR,0.00,0.00,VWS V14.01,2013-10-27 06:38:00,
2013-10-27 02:43:00,46.5,33.4,29.94,NW,317,0.0,1.0,60,0.00,,CLR,0.00,0.00,VWS V14.01,2013-10-27 06:43:00,
2013-10-27 02:48:00,46.3,33.2,29.94,NW,317,0.0,0.0,60,0.00,,CLR,0.00,0.00,VWS V14.01,2013-10-27 06:48:00,
2013-10-27 02:53:00,46.1,33.4,29.94,NW,317,0.0,0.0,61,0.00,,CLR,0.00,0.00,VWS V14.01,2013-10-27 06:53:00,
2013-10-27 02:58:00,45.8,33.1,29.94,NW,317,0.0,0.0,61,0.00,,CLR,0.00,0.00,VWS V14.01,2013-10-27 06:58:00,
2013-10-27 03:03:00,45.6,33.3,29.94,NW,317,0.0,0.0,62,0.00,,CLR,0.00,0.00,VWS V14.01,2013-10-27 07:03:00,
2013-10-27 03:09:00,45.4,33.6,29.94,NW,317,1.0,1.0,63,0.00,,CLR,0.00,0.00,VWS V14.01,2013-10-27 07:09:00,
2013-10-27 03:14:00,45.3,33.5,29.95,NW,317,0.0,0.0,63,0.00,,CLR,0.00,0.00,VWS V14.01,2013-10-27 07:14:00,
2013-10-27 03:19:00,45.1,33.7,29.95,NW,317,0.0,1.0,64,0.00,,CLR,0.00,0.00,VWS V14.01,2013-10-27 07:19:00,
2013-10-27 03:24:00,45.0,33.6,29.95,NW,317,1.0,2.0,64,0.00,,CLR,0.00,0.00,VWS V14.01,2013-10-27 07:24:00,
2013-10-27 03:29:00,44.9,33.5,29.95,NW,317,0.0,2.0,64,0.00,,CLR,0.00,0.00,VWS V14.01,2013-10-27 07:29:00,
2013-10-27 03:34:00,44.7,33.7,29.95,NW,317,0.0,0.0,65,0.00,,CLR,0.00,0.00,VWS V14.01,2013-10-27 07:34:00,
2013-10-27 03:39:00,44.6,33.6,29.95,NW,317,0.0,0.0,65,0.00,,CLR,0.00,0.00,VWS V14.01,2013-10-27 07:39:00,
2013-10-27 03:44:00,44.4,33.8,29.96,WNW,293,0.0,0.0,66,0.00,,CLR,0.00,0.00,VWS V14.01,2013-10-27 07:44:00,
2013-10-27 03:49:00,44.2,33.6,29.96,WNW,292,0.0,1.0,66,0.00,,CLR,0.00,0.00,VWS V14.01,2013-10-27 07:49:00,
2013-10-27 03:54:00,44.3,34.0,29.96,WNW,292,0.0,1.0,67,0.00,,CLR,0.00,0.00,VWS V14.01,2013-10-27 07:54:00,
2013-10-27 03:59:00,44.4,34.1,29.95,WNW,292,0.0,0.0,67,0.00,,CLR,0.00,0.00,VWS V14.01,2013-10-27 07:59:00,
2013-10-27 04:04:00,44.7,34.4,29.95,SW,227,0.0,2.0,67,0.00,,CLR,0.00,0.00,VWS V14.01,2013-10-27 08:04:00,
2013-10-27 04:09:00,44.9,34.6,29.95,SW,227,0.0,0.0,67,0.00,,CLR,0.00,0.00,VWS V14.01,2013-10-27 08:09:00,
2013-10-27 04:14:00,45.0,34.3,29.94,SW,227,0.0,0.0,66,0.00,,CLR,0.00,0.00,VWS V14.01,2013-10-27 08:14:00,
2013-10-27 04:19:00,45.2,34.5,29.94,SW,227,0.0,1.0,66,0.00,,CLR,0.00,0.00,VWS V14.01,2013-10-27 08:19:00,
2013-10-27 04:24:00,45.4,34.7,29.94,WNW,302,0.0,3.0,66,0.00,,CLR,0.00,0.00,VWS V14.01,2013-10-27 08:24:00,
2013-10-27 04:29:00,45.5,34.8,29.94,WNW,302,0.0,0.0,66,0.00,,CLR,0.00,0.00,VWS V14.01,2013-10-27 08:29:00,
2013-10-27 04:34:00,45.5,34.8,29.94,WNW,302,0.0,1.0,66,0.00,,CLR,0.00,0.00,VWS V14.01,2013-10-27 08:34:00,
2013-10-27 04:39:00,45.7,35.0,29.94,NW,316,0.0,3.0,66,0.00,,CLR,0.00,0.00,VWS V14.01,2013-10-27 08:39:00,
2013-10-27 04:44:00,45.7,35.0,29.95,NW,316,0.0,0.0,66,0.00,,CLR,0.00,0.00,VWS V14.01,2013-10-27 08:44:00,
2013-10-27 04:49:00,45.7,35.0,29.95,NW,315,0.0,0.0,66,0.00,,CLR,0.00,0.00,VWS V14.01,2013-10-27 08:49:00,
2013-10-27 04:54:00,45.6,34.9,29.95,NW,315,0.0,0.0,66,0.00,,CLR,0.00,0.00,VWS V14.01,2013-10-27 08:54:00,
2013-10-27 04:59:00,45.5,34.8,29.95,NW,316,0.0,0.0,66,0.00,,CLR,0.00,0.00,VWS V14.01,2013-10-27 08:59:00,
2013-10-27 05:04:00,45.2,34.2,29.96,NW,316,0.0,0.0,65,0.00,,CLR,0.00,0.00,VWS V14.01,2013-10-27 09:04:00,
2013-10-27 05:09:00,45.0,34.3,29.96,NW,315,0.0,0.0,66,0.00,,CLR,0.00,0.00,VWS V14.01,2013-10-27 09:09:00,
2013-10-27 05:14:00,44.6,34.7,29.96,NW,316,0.0,0.0,68,0.00,,CLR,0.00,0.00,VWS V14.01,2013-10-27 09:14:00,
2013-10-27 05:19:00,44.3,34.4,29.96,NW,316,0.0,1.0,68,0.00,,CLR,0.00,0.00,VWS V14.01,2013-10-27 09:19:00,
2013-10-27 05:24:00,44.0,34.5,29.96,NW,315,0.0,1.0,69,0.00,,CLR,0.00,0.00,VWS V14.01,2013-10-27 09:24:00,
2013-10-27 05:29:00,43.7,34.6,29.96,NW,315,0.0,2.0,70,0.00,,CLR,0.00,0.00,VWS V14.01,2013-10-27 09:29:00,
2013-10-27 05:34:00,43.6,34.5,29.97,NW,315,0.0,1.0,70,0.00,,CLR,0.00,0.00,VWS V14.01,2013-10-27 09:34:00,
2013-10-27 05:39:00,43.6,34.5,29.97,NW,316,0.0,0.0,70,0.00,,CLR,0.00,0.00,VWS V14.01,2013-10-27 09:39:00,
2013-10-27 05:44:00,43.6,34.8,29.98,NW,316,0.0,1.0,71,0.00,,CLR,0.00,0.00,VWS V14.01,2013-10-27 09:44:00,
2013-10-27 05:49:00,43.5,34.4,29.98,NW,315,0.0,0.0,70,0.00,,CLR,0.00,0.00,VWS V14.01,2013-10-27 09:49:00,
2013-10-27 05:54:00,43.3,34.2,29.98,NW,316,0.0,0.0,70,0.00,,CLR,0.00,0.00,VWS V14.01,2013-10-27 09:54:00,
2013-10-27 05:59:00,43.1,34.0,29.98,NW,315,0.0,0.0,70,0.00,,CLR,0.00,0.00,VWS V14.01,2013-10-27 09:59:00,
2013-10-27 06:04:00,42.8,34.1,29.98,NW,316,0.0,0.0,71,0.00,,CLR,0.00,0.00,VWS V14.01,2013-10-27 10:04:00,
2013-10-27 06:09:00,42.5,33.8,29.98,NW,315,0.0,0.0,71,0.00,,CLR,0.00,0.00,VWS V14.01,2013-10-27 10:09:00,
2013-10-27 06:14:00,42.2,33.5,29.98,NW,316,0.0,0.0,71,0.00,,CLR,0.00,0.00,VWS V14.01,2013-10-27 10:14:00,
2013-10-27 06:19:00,41.9,33.5,29.99,NW,316,0.0,0.0,72,0.00,,CLR,0.00,0.00,VWS V14.01,2013-10-27 10:19:00,
2013-10-27 06:24:00,41.7,33.7,29.99,NW,316,0.0,0.0,73,0.00,,CLR,0.00,0.00,VWS V14.01,2013-10-27 10:24:00,
2013-10-27 06:29:00,41.4,33.8,29.99,NW,316,0.0,0.0,74,0.00,,CLR,0.00,0.00,VWS V14.01,2013-10-27 10:29:00,
2013-10-27 06:34:00,41.4,34.1,29.99,NW,316,0.0,0.0,75,0.00,,CLR,0.00,0.00,VWS V14.01,2013-10-27 10:34:00,
2013-10-27 06:40:00,41.7,34.4,29.98,NNW,327,5.0,5.0,75,0.00,,CLR,0.00,0.00,VWS V14.01,2013-10-27 10:40:00,
2013-10-27 06:45:00,42.2,34.5,29.98,North,355,1.0,3.0,74,0.00,,CLR,0.00,0.00,VWS V14.01,2013-10-27 10:45:00,
2013-10-27 06:50:00,42.9,34.8,29.98,NW,315,4.0,6.0,73,0.00,,CLR,0.00,0.00,VWS V14.01,2013-10-27 10:50:00,
2013-10-27 06:55:00,43.4,35.0,29.98,NNW,336,0.0,0.0,72,0.00,,CLR,0.00,0.00,VWS V14.01,2013-10-27 10:55:00,
2013-10-27 07:00:00,43.7,34.9,29.99,NNW,336,0.0,0.0,71,0.00,,CLR,0.00,0.00,VWS V14.01,2013-10-27 11:00:00,
2013-10-27 07:05:00,43.8,35.0,29.99,NNW,336,0.0,0.0,71,0.00,,CLR,0.00,0.00,VWS V14.01,2013-10-27 11:05:00,
2013-10-27 07:10:00,43.8,34.7,30.00,NNW,336,0.0,0.0,70,0.00,,CLR,0.00,0.00,VWS V14.01,2013-10-27 11:10:00,
2013-10-27 07:15:00,43.7,34.6,30.00,NNW,336,0.0,0.0,70,0.00,,CLR,0.00,0.00,VWS V14.01,2013-10-27 11:15:00,
2013-10-27 07:20:00,43.6,34.8,30.00,NNW,336,0.0,0.0,71,0.00,,CLR,0.00,0.00,VWS V14.01,2013-10-27 11:20:00,
2013-10-27 07:25:00,43.2,34.5,30.00,NNW,336,0.0,0.0,71,0.00,,CLR,0.00,0.00,VWS V14.01,2013-10-27 11:25:00,
2013-10-27 07:30:00,42.8,34.4,30.00,NNW,336,0.0,0.0,72,0.00,,CLR,0.00,0.00,VWS V14.01,2013-10-27 11:30:00,
2013-10-27 07:35:00,42.5,33.8,30.00,NNW,336,0.0,0.0,71,0.00,,CLR,0.00,5.00,VWS V14.01,2013-10-27 11:35:00,
2013-10-27 07:41:00,42.1,33.4,30.00,NNW,336,0.0,0.0,71,0.00,,CLR,0.00,7.00,VWS V14.01,2013-10-27 11:41:00,
2013-10-27 07:46:00,41.7,33.3,30.00,NNW,336,0.0,0.0,72,0.00,,CLR,0.00,9.00,VWS V14.01,2013-10-27 11:46:00,
2013-10-27 07:51:00,41.2,32.9,30.00,NNW,336,0.0,0.0,72,0.00,,CLR,0.00,12.00,VWS V14.01,2013-10-27 11:51:00,
2013-10-27 07:56:00,40.9,33.3,30.01,NNW,336,0.0,0.0,74,0.00,,CLR,0.00,14.00,VWS V14.01,2013-10-27 11:56:00,
2013-10-27 08:01:00,40.3,33.0,30.01,NNW,336,0.0,0.0,75,0.00,,CLR,0.00,16.00,VWS V14.01,2013-10-27 12:01:00,
2013-10-27 08:06:00,39.9,33.3,30.02,NNW,336,0.0,0.0,77,0.00,,CLR,0.00,19.00,VWS V14.01,2013-10-27 12:06:00,
2013-10-27 08:11:00,39.7,33.4,30.02,NNW,336,0.0,0.0,78,0.00,,CLR,0.00,21.00,VWS V14.01,2013-10-27 12:11:00,
2013-10-27 08:16:00,39.6,33.6,30.02,NNW,336,0.0,1.0,79,0.00,,CLR,0.00,23.00,VWS V14.01,2013-10-27 12:16:00,
2013-10-27 08:21:00,39.5,33.8,30.03,NNW,336,0.0,1.0,80,0.00,,CLR,0.00,23.00,VWS V14.01,2013-10-27 12:21:00,
2013-10-27 08:26:00,39.5,33.8,30.03,NNW,336,0.0,0.0,80,0.00,,CLR,0.00,26.00,VWS V14.01,2013-10-27 12:26:00,
2013-10-27 08:31:00,39.5,34.2,30.03,NNW,336,0.0,1.0,81,0.00,,CLR,0.00,28.00,VWS V14.01,2013-10-27 12:31:00,
2013-10-27 08:34:00,39.6,34.3,30.03,NNW,336,0.0,1.0,81,0.00,,CLR,0.00,28.00,VWS V14.01,2013-10-27 12:34:00,
2013-10-27 08:39:00,40.2,35.5,30.03,NNW,336,0.0,0.0,83,0.00,,CLR,0.00,76.00,VWS V14.01,2013-10-27 12:39:00,
2013-10-27 08:44:00,41.8,36.4,30.03,NNW,336,0.0,0.0,81,0.00,,CLR,0.00,95.00,VWS V14.01,2013-10-27 12:44:00,
2013-10-27 08:49:00,43.1,36.4,30.03,NNW,336,0.0,1.0,77,0.00,,CLR,0.00,51.00,VWS V14.01,2013-10-27 12:49:00,
2013-10-27 08:54:00,44.0,36.9,30.04,NNW,336,0.0,0.0,76,0.00,,CLR,0.00,128.00,VWS V14.01,2013-10-27 12:54:00,
2013-10-27 08:59:00,44.6,37.2,30.04,NNW,336,0.0,0.0,75,0.00,,CLR,0.00,160.00,VWS V14.01,2013-10-27 12:59:00,
2013-10-27 09:04:00,45.5,37.4,30.04,NNW,336,0.0,0.0,73,0.00,,CLR,0.00,195.00,VWS V14.01,2013-10-27 13:04:00,
2013-10-27 09:09:00,46.1,36.9,30.04,NNW,336,0.0,1.0,70,0.00,,CLR,0.00,137.00,VWS V14.01,2013-10-27 13:09:00,
2013-10-27 09:14:00,46.5,37.3,30.04,NNW,334,0.0,1.0,70,0.00,,CLR,0.00,285.00,VWS V14.01,2013-10-27 13:14:00,
2013-10-27 09:19:00,47.0,37.7,30.04,NNW,335,0.0,0.0,70,0.00,,CLR,0.00,202.00,VWS V14.01,2013-10-27 13:19:00,
2013-10-27 09:24:00,47.4,38.1,30.04,NNW,335,0.0,0.0,70,0.00,,CLR,0.00,128.00,VWS V14.01,2013-10-27 13:24:00,
2013-10-27 09:29:00,47.7,37.3,30.04,NNW,334,0.0,0.0,67,0.00,,CLR,0.00,220.00,VWS V14.01,2013-10-27 13:29:00,
2013-10-27 09:34:00,48.2,37.8,30.05,NNW,334,0.0,0.0,67,0.00,,CLR,0.00,174.00,VWS V14.01,2013-10-27 13:34:00,
2013-10-27 09:39:00,48.5,38.1,30.05,NNW,336,0.0,0.0,67,0.00,,CLR,0.00,102.00,VWS V14.01,2013-10-27 13:39:00,
2013-10-27 09:44:00,48.5,37.7,30.05,NNW,336,0.0,0.0,66,0.00,,CLR,0.00,132.00,VWS V14.01,2013-10-27 13:44:00,
2013-10-27 09:49:00,48.9,38.1,30.05,NNW,336,0.0,0.0,66,0.00,,CLR,0.00,216.00,VWS V14.01,2013-10-27 13:49:00,
2013-10-27 09:54:00,49.6,38.7,30.05,NE,43,0.0,0.0,66,0.00,,CLR,0.00,265.00,VWS V14.01,2013-10-27 13:54:00,
2013-10-27 09:59:00,50.3,38.6,30.05,NNW,331,0.0,3.0,64,0.00,,CLR,0.00,251.00,VWS V14.01,2013-10-27 13:59:00,
2013-10-27 10:04:00,50.7,38.2,30.05,NW,323,0.0,1.0,62,0.00,,CLR,0.00,206.00,VWS V14.01,2013-10-27 14:04:00,
2013-10-27 10:10:00,51.0,38.9,30.05,NW,326,6.0,8.0,63,0.00,,CLR,0.00,283.00,VWS V14.01,2013-10-27 14:10:00,
2013-10-27 10:15:00,51.1,37.7,30.05,NNW,331,0.0,6.0,60,0.00,,CLR,0.00,316.00,VWS V14.01,2013-10-27 14:15:00,
2013-10-27 10:20:00,51.3,37.9,30.05,North,350,6.0,9.0,60,0.00,,CLR,0.00,364.00,VWS V14.01,2013-10-27 14:20:00,
2013-10-27 10:25:00,51.5,38.1,30.05,NNW,348,5.0,9.0,60,0.00,,CLR,0.00,380.00,VWS V14.01,2013-10-27 14:25:00,
2013-10-27 10:30:00,51.5,37.7,30.05,North,349,1.0,8.0,59,0.00,,CLR,0.00,406.00,VWS V14.01,2013-10-27 14:30:00,
2013-10-27 10:35:00,51.7,38.3,30.05,NW,320,4.0,7.0,60,0.00,,CLR,0.00,223.00,VWS V14.01,2013-10-27 14:35:00,
2013-10-27 10:40:00,51.6,37.8,30.05,WSW,247,0.0,5.0,59,0.00,,CLR,0.00,265.00,VWS V14.01,2013-10-27 14:40:00,
2013-10-27 10:45:00,51.8,37.9,30.05,NW,324,0.0,6.0,59,0.00,,CLR,0.00,425.00,VWS V14.01,2013-10-27 14:45:00,
2013-10-27 10:50:00,52.0,38.1,30.05,NNW,333,0.0,6.0,59,0.00,,CLR,0.00,441.00,VWS V14.01,2013-10-27 14:50:00,
2013-10-27 10:55:00,52.3,39.3,30.05,West,263,2.0,5.0,61,0.00,,CLR,0.00,439.00,VWS V14.01,2013-10-27 14:55:00,
2013-10-27 11:00:00,52.4,38.5,30.04,WNW,302,0.0,3.0,59,0.00,,CLR,0.00,436.00,VWS V14.01,2013-10-27 15:00:00,
2013-10-27 11:05:00,52.8,39.3,30.04,NW,321,0.0,3.0,60,0.00,,CLR,0.00,422.00,VWS V14.01,2013-10-27 15:05:00,
2013-10-27 11:11:00,53.2,39.3,30.04,North,355,6.0,8.0,59,0.00,,CLR,0.00,394.00,VWS V14.01,2013-10-27 15:11:00,
2013-10-27 11:16:00,53.2,38.4,30.04,NNW,329,0.0,6.0,57,0.00,,CLR,0.00,369.00,VWS V14.01,2013-10-27 15:16:00,
2013-10-27 11:21:00,53.3,38.0,30.04,WNW,291,0.0,7.0,56,0.00,,CLR,0.00,353.00,VWS V14.01,2013-10-27 15:21:00,
2013-10-27 11:26:00,53.5,38.2,30.04,NW,313,0.0,4.0,56,0.00,,CLR,0.00,346.00,VWS V14.01,2013-10-27 15:26:00,
2013-10-27 11:31:00,53.5,38.2,30.04,NNW,336,1.0,8.0,56,0.00,,CLR,0.00,357.00,VWS V14.01,2013-10-27 15:31:00,
2013-10-27 11:36:00,53.6,38.3,30.04,NW,323,2.0,6.0,56,0.00,,CLR,0.00,381.00,VWS V14.01,2013-10-27 15:36:00,
2013-10-27 11:41:00,53.8,37.1,30.05,NNE,28,6.0,13.0,53,0.00,,CLR,0.00,415.00,VWS V14.01,2013-10-27 15:41:00,
2013-10-27 11:46:00,53.8,37.6,30.04,NNW,345,5.0,7.0,54,0.00,,CLR,0.00,445.00,VWS V14.01,2013-10-27 15:46:00,
2013-10-27 11:51:00,54.0,38.2,30.04,SW,232,0.0,7.0,55,0.00,,CLR,0.00,457.00,VWS V14.01,2013-10-27 15:51:00,
2013-10-27 11:56:00,54.2,37.9,30.04,NW,320,4.0,9.0,54,0.00,,CLR,0.00,469.00,VWS V14.01,2013-10-27 15:56:00,
2013-10-27 12:01:00,54.3,38.0,30.04,WNW,297,5.0,13.0,54,0.00,,CLR,0.00,462.00,VWS V14.01,2013-10-27 16:01:00,
2013-10-27 12:06:00,54.2,37.9,30.04,NNW,330,0.0,6.0,54,0.00,,CLR,0.00,448.00,VWS V14.01,2013-10-27 16:06:00,
2013-10-27 12:12:00,54.7,38.9,30.04,NW,317,8.0,12.0,55,0.00,,CLR,0.00,431.00,VWS V14.01,2013-10-27 16:12:00,
2013-10-27 12:17:00,54.8,39.0,30.04,NNW,343,0.0,7.0,55,0.00,,CLR,0.00,415.00,VWS V14.01,2013-10-27 16:17:00,
2013-10-27 12:22:00,55.1,38.8,30.03,WNW,298,4.0,7.0,54,0.00,,CLR,0.00,445.00,VWS V14.01,2013-10-27 16:22:00,
2013-10-27 12:27:00,55.2,37.9,30.03,WNW,295,0.0,12.0,52,0.00,,CLR,0.00,169.00,VWS V14.01,2013-10-27 16:27:00,
2013-10-27 12:32:00,54.6,37.8,30.03,NNW,332,6.0,9.0,53,0.00,,CLR,0.00,413.00,VWS V14.01,2013-10-27 16:32:00,
2013-10-27 12:37:00,54.8,39.0,30.03,NNW,341,11.0,11.0,55,0.00,,CLR,0.00,385.00,VWS V14.01,2013-10-27 16:37:00,
2013-10-27 12:42:00,55.4,37.1,30.03,NNE,14,0.0,7.0,50,0.00,,CLR,0.00,373.00,VWS V14.01,2013-10-27 16:42:00,
2013-10-27 12:47:00,56.0,38.6,30.02,WSW,253,0.0,7.0,52,0.00,,CLR,0.00,457.00,VWS V14.01,2013-10-27 16:47:00,
2013-10-27 12:52:00,56.2,38.3,30.03,NW,323,4.0,9.0,51,0.00,,CLR,0.00,540.00,VWS V14.01,2013-10-27 16:52:00,
2013-10-27 12:57:00,56.2,37.8,30.02,NW,325,4.0,11.0,50,0.00,,CLR,0.00,573.00,VWS V14.01,2013-10-27 16:57:00,
2013-10-27 13:02:00,56.1,38.7,30.02,NNW,329,6.0,7.0,52,0.00,,CLR,0.00,592.00,VWS V14.01,2013-10-27 17:02:00,
2013-10-27 13:07:00,56.4,38.0,30.02,NW,319,6.0,10.0,50,0.00,,CLR,0.00,642.00,VWS V14.01,2013-10-27 17:07:00,
2013-10-27 13:12:00,56.3,39.4,30.02,NNW,327,9.0,10.0,53,0.00,,CLR,0.00,617.00,VWS V14.01,2013-10-27 17:12:00,
2013-10-27 13:18:00,56.6,38.7,30.02,NNW,333,5.0,10.0,51,0.00,,CLR,0.00,617.00,VWS V14.01,2013-10-27 17:18:00,
2013-10-27 13:23:00,56.6,37.7,30.02,NW,314,6.0,11.0,49,0.00,,CLR,0.00,624.00,VWS V14.01,2013-10-27 17:23:00,
2013-10-27 13:28:00,56.9,39.5,30.01,WNW,294,1.0,7.0,52,0.00,,CLR,0.00,668.00,VWS V14.01,2013-10-27 17:28:00,
2013-10-27 13:33:00,57.2,38.2,30.01,WSW,254,4.0,7.0,49,0.00,,CLR,0.00,642.00,VWS V14.01,2013-10-27 17:33:00,
2013-10-27 13:38:00,56.5,38.1,30.01,NNW,329,7.0,9.0,50,0.00,,CLR,0.00,617.00,VWS V14.01,2013-10-27 17:38:00,
2013-10-27 13:43:00,56.5,39.1,30.01,North,360,9.0,10.0,52,0.00,,CLR,0.00,571.00,VWS V14.01,2013-10-27 17:43:00,
2013-10-27 13:48:00,56.5,38.6,30.01,NNW,336,7.0,11.0,51,0.00,,CLR,0.00,555.00,VWS V14.01,2013-10-27 17:48:00,
2013-10-27 13:53:00,56.5,38.6,30.00,NW,320,0.0,10.0,51,0.00,,CLR,0.00,534.00,VWS V14.01,2013-10-27 17:53:00,
2013-10-27 13:58:00,56.6,37.7,30.00,NNW,345,5.0,11.0,49,0.00,,CLR,0.00,485.00,VWS V14.01,2013-10-27 17:58:00,
2013-10-27 14:03:00,56.5,37.6,30.00,NW,325,4.0,12.0,49,0.00,,CLR,0.00,512.00,VWS V14.01,2013-10-27 18:03:00,
2013-10-27 14:08:00,56.3,37.9,30.00,NNW,346,0.0,8.0,50,0.00,,CLR,0.00,504.00,VWS V14.01,2013-10-27 18:08:00,
2013-10-27 14:13:00,56.4,37.5,30.00,NW,324,8.0,13.0,49,0.00,,CLR,0.00,520.00,VWS V14.01,2013-10-27 18:13:00,
2013-10-27 14:18:00,56.5,37.1,30.00,NNW,330,4.0,8.0,48,0.00,,CLR,0.00,429.00,VWS V14.01,2013-10-27 18:18:00,
2013-10-27 14:24:00,56.7,37.2,30.00,NNW,341,5.0,11.0,48,0.00,,CLR,0.00,480.00,VWS V14.01,2013-10-27 18:24:00,
2013-10-27 14:29:00,56.8,38.4,30.00,North,355,3.0,13.0,50,0.00,,CLR,0.00,504.00,VWS V14.01,2013-10-27 18:29:00,
2013-10-27 14:34:00,56.9,38.0,30.00,NW,314,3.0,12.0,49,0.00,,CLR,0.00,499.00,VWS V14.01,2013-10-27 18:34:00,
2013-10-27 14:39:00,57.0,37.5,30.00,WNW,290,5.0,13.0,48,0.00,,CLR,0.00,492.00,VWS V14.01,2013-10-27 18:39:00,
2013-10-27 14:44:00,57.1,37.1,30.00,NW,322,1.0,12.0,47,0.00,,CLR,0.00,480.00,VWS V14.01,2013-10-27 18:44:00,
2013-10-27 14:49:00,57.4,38.4,29.99,NNW,334,0.0,7.0,49,0.00,,CLR,0.00,466.00,VWS V14.01,2013-10-27 18:49:00,
2013-10-27 14:54:00,57.7,37.6,30.00,WNW,302,3.0,9.0,47,0.00,,CLR,0.00,462.00,VWS V14.01,2013-10-27 18:54:00,
2013-10-27 14:59:00,57.7,37.1,30.00,NNW,339,9.0,13.0,46,0.00,,CLR,0.00,457.00,VWS V14.01,2013-10-27 18:59:00,
2013-10-27 15:04:00,57.5,37.5,30.00,SSW,199,4.0,8.0,47,0.00,,CLR,0.00,424.00,VWS V14.01,2013-10-27 19:04:00,
2013-10-27 15:09:00,57.5,37.5,30.00,ENE,65,0.0,2.0,47,0.00,,CLR,0.00,424.00,VWS V14.01,2013-10-27 19:09:00,
2013-10-27 15:14:00,57.6,37.0,30.00,North,355,6.0,8.0,46,0.00,,CLR,0.00,411.00,VWS V14.01,2013-10-27 19:14:00,
2013-10-27 15:19:00,57.5,36.3,30.00,WNW,300,4.0,4.0,45,0.00,,CLR,0.00,415.00,VWS V14.01,2013-10-27 19:19:00,
2013-10-27 15:24:00,57.6,36.4,30.00,NW,315,4.0,5.0,45,0.00,,CLR,0.00,378.00,VWS V14.01,2013-10-27 19:24:00,
2013-10-27 15:29:00,57.6,36.4,30.00,NW,306,4.0,5.0,45,0.00,,CLR,0.00,387.00,VWS V14.01,2013-10-27 19:29:00,
2013-10-27 15:34:00,57.7,36.5,30.00,NNW,339,5.0,7.0,45,0.00,,CLR,0.00,367.00,VWS V14.01,2013-10-27 19:34:00,
2013-10-27 15:39:00,57.7,36.5,30.00,NNW,342,0.0,8.0,45,0.00,,CLR,0.00,334.00,VWS V14.01,2013-10-27 19:39:00,
2013-10-27 15:45:00,57.7,36.5,30.00,North,355,3.0,5.0,45,0.00,,CLR,0.00,360.00,VWS V14.01,2013-10-27 19:45:00,
2013-10-27 15:50:00,58.0,36.8,30.00,NNW,346,1.0,4.0,45,0.00,,CLR,0.00,353.00,VWS V14.01,2013-10-27 19:50:00,
2013-10-27 15:55:00,58.1,36.3,30.00,NNW,334,2.0,2.0,44,0.00,,CLR,0.00,332.00,VWS V14.01,2013-10-27 19:55:00,
2013-10-27 16:00:00,58.2,35.8,30.00,NW,311,2.0,6.0,43,0.00,,CLR,0.00,322.00,VWS V14.01,2013-10-27 20:00:00,
2013-10-27 16:05:00,58.1,36.3,30.00,North,360,3.0,7.0,44,0.00,,CLR,0.00,309.00,VWS V14.01,2013-10-27 20:05:00,
2013-10-27 16:10:00,58.0,35.7,30.00,NW,311,0.0,9.0,43,0.00,,CLR,0.00,295.00,VWS V14.01,2013-10-27 20:10:00,
2013-10-27 16:15:00,58.0,35.7,30.00,WNW,303,1.0,6.0,43,0.00,,CLR,0.00,257.00,VWS V14.01,2013-10-27 20:15:00,
2013-10-27 16:20:00,57.9,36.1,30.00,North,360,8.0,9.0,44,0.00,,CLR,0.00,262.00,VWS V14.01,2013-10-27 20:20:00,
2013-10-27 16:26:00,57.9,35.6,30.00,NW,318,6.0,8.0,43,0.00,,CLR,0.00,243.00,VWS V14.01,2013-10-27 20:26:00,
2013-10-27 16:31:00,57.9,35.6,30.00,NW,322,5.0,5.0,43,0.00,,CLR,0.00,211.00,VWS V14.01,2013-10-27 20:31:00,
2013-10-27 16:36:00,57.8,35.5,30.00,NW,323,1.0,6.0,43,0.00,,CLR,0.00,221.00,VWS V14.01,2013-10-27 20:36:00,
2013-10-27 16:41:00,57.7,35.4,30.00,NW,325,4.0,5.0,43,0.00,,CLR,0.00,199.00,VWS V14.01,2013-10-27 20:41:00,
2013-10-27 16:46:00,57.7,35.4,30.01,NW,322,1.0,6.0,43,0.00,,CLR,0.00,193.00,VWS V14.01,2013-10-27 20:46:00,
2013-10-27 16:51:00,57.7,36.0,30.01,NNW,331,0.0,3.0,44,0.00,,CLR,0.00,153.00,VWS V14.01,2013-10-27 20:51:00,
2013-10-27 16:56:00,57.6,35.3,30.01,West,280,0.0,9.0,43,0.00,,CLR,0.00,146.00,VWS V14.01,2013-10-27 20:56:00,
2013-10-27 17:01:00,57.6,35.9,30.01,North,355,2.0,4.0,44,0.00,,CLR,0.00,127.00,VWS V14.01,2013-10-27 21:01:00,
2013-10-27 17:06:00,57.5,35.8,30.01,NNW,333,3.0,4.0,44,0.00,,CLR,0.00,116.00,VWS V14.01,2013-10-27 21:06:00,
2013-10-27 17:11:00,57.4,35.7,30.01,NW,320,0.0,2.0,44,0.00,,CLR,0.00,100.00,VWS V14.01,2013-10-27 21:11:00,
2013-10-27 17:17:00,57.2,36.1,30.01,NNW,336,0.0,2.0,45,0.00,,CLR,0.00,86.00,VWS V14.01,2013-10-27 21:17:00,
2013-10-27 17:22:00,57.2,35.5,30.01,North,355,0.0,6.0,44,0.00,,CLR,0.00,67.00,VWS V14.01,2013-10-27 21:22:00,
2013-10-27 17:27:00,57.2,34.9,30.01,NW,308,1.0,5.0,43,0.00,,CLR,0.00,54.00,VWS V14.01,2013-10-27 21:27:00,
2013-10-27 17:32:00,57.0,35.3,30.01,NW,315,0.0,3.0,44,0.00,,CLR,0.00,37.00,VWS V14.01,2013-10-27 21:32:00,
2013-10-27 17:40:00,56.9,34.7,30.01,NW,315,0.0,0.0,43,0.00,,CLR,0.00,23.00,VWS V14.01,2013-10-27 21:40:00,
2013-10-27 17:45:00,56.8,34.6,30.01,NNW,327,0.0,1.0,43,0.00,,CLR,0.00,21.00,VWS V14.01,2013-10-27 21:45:00,
2013-10-27 17:51:00,56.6,35.0,30.01,NNW,327,0.0,0.0,44,0.00,,CLR,0.00,16.00,VWS V14.01,2013-10-27 21:51:00,
2013-10-27 17:56:00,56.4,34.8,30.01,NNW,327,0.0,0.0,44,0.00,,CLR,0.00,12.00,VWS V14.01,2013-10-27 21:56:00,
2013-10-27 18:01:00,56.1,34.5,30.02,NNW,327,0.0,0.0,44,0.00,,CLR,0.00,11.00,VWS V14.01,2013-10-27 22:01:00,
2013-10-27 18:06:00,55.8,34.8,30.02,NNW,327,0.0,0.0,45,0.00,,CLR,0.00,7.00,VWS V14.01,2013-10-27 22:06:00,
2013-10-27 18:11:00,55.4,35.0,30.02,NNW,327,0.0,0.0,46,0.00,,CLR,0.00,5.00,VWS V14.01,2013-10-27 22:11:00,
2013-10-27 18:16:00,54.9,35.1,30.02,NNW,327,0.0,0.0,47,0.00,,CLR,0.00,0.00,VWS V14.01,2013-10-27 22:16:00,
2013-10-27 18:21:00,54.4,34.6,30.02,NNW,327,0.0,0.0,47,0.00,,CLR,0.00,0.00,VWS V14.01,2013-10-27 22:21:00,
2013-10-27 18:26:00,53.9,34.7,30.03,NNW,327,0.0,0.0,48,0.00,,CLR,0.00,0.00,VWS V14.01,2013-10-27 22:26:00,
2013-10-27 18:32:00,53.3,35.2,30.03,NNW,327,0.0,0.0,50,0.00,,CLR,0.00,0.00,VWS V14.01,2013-10-27 22:32:00,
2013-10-27 18:37:00,52.8,35.2,30.03,NNW,327,0.0,0.0,51,0.00,,CLR,0.00,0.00,VWS V14.01,2013-10-27 22:37:00,
2013-10-27 18:42:00,52.3,34.2,30.03,NNW,327,0.0,0.0,50,0.00,,CLR,0.00,0.00,VWS V14.01,2013-10-27 22:42:00,
2013-10-27 18:47:00,51.7,33.7,30.04,NNW,327,0.0,0.0,50,0.00,,CLR,0.00,0.00,VWS V14.01,2013-10-27 22:47:00,
2013-10-27 18:52:00,51.4,33.4,30.04,NNW,327,0.0,0.0,50,0.00,,CLR,0.00,0.00,VWS V14.01,2013-10-27 22:52:00,